Time;durP1;ratioP1;P1;durP2;ratioP2;P2;SDS_P1;SDS_P2;PMS_P1;PMS_P2;Temp;Humidity;BMP_temperature;BMP_pressure;BME280_temperature;BME280_humidity;BME280_pressure;Samples;Min_cycle;Max_cycle;Signal;HPM_P1;HPM_P2
2022/02/09 00:01:23;;;;;;;;;;;17.70;99.90;;;;;;5023894;28;1206;-58
2022/02/09 00:03:59;;;;;;;;;;;17.70;99.90;;;;;;5020833;28;1675;-58
2022/02/09 00:09:10;;;;;;;;;;;17.50;99.90;;;;;;5054461;28;1305;-57
2022/02/09 00:11:44;;;;;;;;;;;17.40;99.90;;;;;;5055813;28;1301;-57
2022/02/09 00:14:51;;;;;;;;;;;17.40;99.90;;;;;;5056158;28;1277;-47
2022/02/09 00:30:50;;;;;;;;;;;17.10;99.90;;;;;;5056429;28;1202;-57
2022/02/09 00:33:37;;;;;;;;;;;17.00;99.90;;;;;;5040060;28;960;-57
2022/02/09 01:55:40;;;;;;;;;;;16.00;99.90;;;;;;5017159;28;1505;-47
2022/02/09 01:58:27;;;;;;;;;;;16.00;99.90;;;;;;5017753;28;1072;-46
2022/02/09 02:01:01;;;;;;;;;;;16.00;99.90;;;;;;5017564;28;1040;-47
2022/02/09 02:03:34;;;;;;;;;;;15.90;99.90;;;;;;4997150;28;1487;-47
2022/02/09 02:06:00;;;;;;;;;;;15.90;99.90;;;;;;5017596;28;1660;-47
2022/02/09 02:08:29;;;;;;;;;;;15.90;99.90;;;;;;5016980;28;1989;-47
2022/02/09 02:18:56;;;;;;;;;;;15.80;99.90;;;;;;5017948;28;742;-56
2022/02/09 02:21:42;;;;;;;;;;;15.80;99.90;;;;;;5017401;28;1009;-57
2022/02/09 03:15:56;;;;;;;;;;;15.40;99.90;;;;;;5057724;28;836;-56
2022/02/09 03:24:05;;;;;;;;;;;15.30;99.90;;;;;;5042099;28;1481;-57
2022/02/09 03:51:33;;;;;;;;;;;15.20;99.90;;;;;;5057313;28;769;-56
2022/02/09 03:57:00;;;;;;;;;;;15.10;99.90;;;;;;5057132;28;762;-56
2022/02/09 03:59:29;;;;;;;;;;;15.10;99.90;;;;;;5056746;28;929;-57
2022/02/09 04:01:57;;;;;;;;;;;15.10;99.90;;;;;;4979688;28;1025;-57
2022/02/09 04:04:24;;;;;;;;;;;15.10;99.90;;;;;;5001358;28;1287;-56
2022/02/09 04:06:52;;;;;;;;;;;15.10;99.90;;;;;;4986610;28;1634;-56
2022/02/09 04:09:23;;;;;;;;;;;15.10;99.90;;;;;;4997552;28;1946;-56
2022/02/09 04:14:41;;;;;;;;;;;15.00;99.90;;;;;;5032892;28;915;-56
2022/02/09 04:17:28;;;;;;;;;;;15.00;99.90;;;;;;5012206;28;857;-56
2022/02/09 04:39:20;;;;;;;;;;;14.90;99.90;;;;;;4937360;29;1138;-56
2022/02/09 04:44:51;;;;;;;;;;;14.90;99.90;;;;;;4937722;29;1184;-56
2022/02/09 04:50:21;;;;;;;;;;;14.80;99.90;;;;;;4934355;29;1232;-56
2022/02/09 04:55:35;;;;;;;;;;;14.80;99.90;;;;;;4905875;29;1185;-56
2022/02/09 04:58:15;;;;;;;;;;;14.80;99.90;;;;;;4933024;28;986;-56
2022/02/09 05:01:07;;;;;;;;;;;14.80;99.90;;;;;;5039486;28;1354;-56
2022/02/09 05:28:17;;;;;;;;;;;14.60;99.90;;;;;;4927256;29;1895;-56
2022/02/09 05:30:48;;;;;;;;;;;14.60;99.90;;;;;;4959358;28;1302;-56
2022/02/09 05:33:17;;;;;;;;;;;14.70;99.90;;;;;;4958973;28;1449;-56
2022/02/09 05:35:43;;;;;;;;;;;14.60;99.90;;;;;;4927382;29;1006;-56
2022/02/09 05:38:12;;;;;;;;;;;14.60;99.90;;;;;;4959285;28;960;-56
2022/02/09 05:40:39;;;;;;;;;;;14.60;99.90;;;;;;4959237;28;910;-56
2022/02/09 05:43:11;;;;;;;;;;;14.60;99.90;;;;;;4959006;28;1311;-56
2022/02/09 05:45:58;;;;;;;;;;;14.60;99.90;;;;;;4943243;29;1123;-56
2022/02/09 05:51:22;;;;;;;;;;;14.60;99.90;;;;;;4972428;28;1065;-56
2022/02/09 05:56:33;;;;;;;;;;;14.50;99.90;;;;;;4929937;28;1068;-56
2022/02/09 06:01:38;;;;;;;;;;;14.50;99.90;;;;;;4979001;28;1102;-46
2022/02/09 06:04:04;;;;;;;;;;;14.50;99.90;;;;;;4992204;28;1621;-47
2022/02/09 06:06:31;;;;;;;;;;;14.50;99.90;;;;;;5059399;28;820;-46
2022/02/09 06:09:08;;;;;;;;;;;14.50;99.90;;;;;;5058853;28;1975;-47
2022/02/09 06:14:53;;;;;;;;;;;14.50;99.90;;;;;;5023882;28;1271;-46
2022/02/09 06:20:08;;;;;;;;;;;14.50;99.90;;;;;;5058657;28;1770;-47
2022/02/09 06:22:35;;;;;;;;;;;14.50;99.90;;;;;;5024577;28;984;-47
2022/02/09 06:25:02;;;;;;;;;;;14.60;99.90;;;;;;5058615;28;892;-47
2022/02/09 06:27:29;;;;;;;;;;;14.60;99.90;;;;;;5057988;28;1905;-47
2022/02/09 06:29:55;;;;;;;;;;;14.60;99.90;;;;;;5040477;28;1151;-47
2022/02/09 06:32:22;;;;;;;;;;;14.60;99.90;;;;;;5057648;28;1175;-47
2022/02/09 06:34:49;;;;;;;;;;;14.60;99.90;;;;;;5040138;28;941;-54
2022/02/09 06:37:36;;;;;;;;;;;14.60;99.90;;;;;;5023792;28;1366;-46
2022/02/09 06:40:03;;;;;;;;;;;14.70;99.90;;;;;;5057347;28;937;-47
2022/02/09 06:42:33;;;;;;;;;;;14.70;99.90;;;;;;5076460;28;881;-46
2022/02/09 06:45:08;;;;;;;;;;;14.70;99.90;;;;;;5052262;28;908;-46
2022/02/09 06:47:37;;;;;;;;;;;14.80;99.90;;;;;;5023730;28;1949;-47
2022/02/09 06:50:11;;;;;;;;;;;14.80;99.90;;;;;;5023487;28;944;-46
2022/02/09 06:52:45;;;;;;;;;;;14.80;99.90;;;;;;5057033;28;998;-47
2022/02/09 06:55:25;;;;;;;;;;;14.90;99.90;;;;;;5057912;28;1019;-46
2022/02/09 07:00:19;;;;;;;;;;;14.90;99.90;;;;;;5058356;28;853;-56
2022/02/09 07:02:45;;;;;;;;;;;15.00;99.90;;;;;;5057369;28;1262;-57
2022/02/09 07:05:14;;;;;;;;;;;15.00;99.90;;;;;;5058076;28;774;-57
2022/02/09 07:07:41;;;;;;;;;;;15.00;99.90;;;;;;5040378;28;1911;-56
2022/02/09 07:10:08;;;;;;;;;;;15.10;99.90;;;;;;5023370;28;978;-56
2022/02/09 07:12:39;;;;;;;;;;;15.10;99.90;;;;;;5023362;28;904;-56
2022/02/09 07:15:09;;;;;;;;;;;15.10;99.90;;;;;;5046846;28;1121;-57
2022/02/09 07:17:35;;;;;;;;;;;15.20;99.90;;;;;;5038704;28;920;-56
2022/02/09 07:20:14;;;;;;;;;;;15.20;99.90;;;;;;5057499;28;770;-56
2022/02/09 07:22:40;;;;;;;;;;;15.20;99.90;;;;;;5056960;28;859;-57
2022/02/09 07:25:15;;;;;;;;;;;15.30;99.90;;;;;;5054383;28;1042;-57
2022/02/09 07:27:52;;;;;;;;;;;15.30;99.90;;;;;;5056634;28;1971;-56
2022/02/09 07:30:22;;;;;;;;;;;15.30;99.90;;;;;;5023011;28;1379;-56
2022/02/09 07:32:52;;;;;;;;;;;15.30;99.90;;;;;;5021047;28;972;-57
2022/02/09 07:35:18;;;;;;;;;;;15.30;99.90;;;;;;5020694;28;1558;-57
2022/02/09 07:37:44;;;;;;;;;;;15.30;99.90;;;;;;5058591;28;1254;-57
2022/02/09 07:40:12;;;;;;;;;;;15.40;99.90;;;;;;5038326;28;866;-57
2022/02/09 07:53:58;;;;;;;;;;;15.50;99.90;;;;;;5057174;28;794;-47
2022/02/09 07:56:34;;;;;;;;;;;15.50;99.90;;;;;;5052877;28;1166;-57
2022/02/09 07:59:03;;;;;;;;;;;15.50;99.90;;;;;;5056466;28;982;-57
2022/02/09 08:01:29;;;;;;;;;;;15.50;99.90;;;;;;5057005;28;842;-57
2022/02/09 08:03:55;;;;;;;;;;;15.60;99.90;;;;;;5052722;28;1705;-57
2022/02/09 08:06:25;;;;;;;;;;;15.60;99.90;;;;;;5056790;28;1807;-57
2022/02/09 08:08:57;;;;;;;;;;;15.60;99.90;;;;;;5056102;28;1910;-56
2022/02/09 08:12:27;;;;;;;;;;;15.60;99.90;;;;;;5056701;28;1379;-57
2022/02/09 08:31:47;;;;;;;;;;;15.80;99.90;;;;;;5011266;28;1268;-47
2022/02/09 08:33:57;;;;;;;;;;;15.80;99.90;;;;;;5008479;28;1628;-47
2022/02/09 08:36:24;;;;;;;;;;;15.80;99.90;;;;;;5015211;28;886;-47
2022/02/09 08:38:51;;;;;;;;;;;15.90;99.90;;;;;;5014607;28;1054;-47
2022/02/09 08:41:17;;;;;;;;;;;15.90;99.90;;;;;;5029284;28;1006;-47
2022/02/09 08:43:44;;;;;;;;;;;15.90;99.90;;;;;;5016391;28;891;-46
2022/02/09 08:46:11;;;;;;;;;;;16.00;99.90;;;;;;5016754;28;954;-46
2022/02/09 08:48:37;;;;;;;;;;;16.00;99.90;;;;;;5029445;28;1977;-47
2022/02/09 08:51:05;;;;;;;;;;;16.00;99.90;;;;;;5015437;28;1323;-47
2022/02/09 08:53:35;;;;;;;;;;;16.00;99.90;;;;;;5015373;28;1673;-47
2022/02/09 08:56:16;;;;;;;;;;;16.00;99.90;;;;;;5017296;28;1762;-47
2022/02/09 08:58:44;;;;;;;;;;;16.00;99.90;;;;;;5009956;28;1588;-47
2022/02/09 09:01:24;;;;;;;;;;;16.00;99.90;;;;;;5039099;28;1212;-57
2022/02/09 09:03:56;;;;;;;;;;;16.00;99.90;;;;;;5043122;28;1576;-58
2022/02/09 09:06:26;;;;;;;;;;;16.00;99.90;;;;;;5040646;28;1178;-58
2022/02/09 10:34:29;;;;;;;;;;;17.00;99.90;;;;;;5034025;28;1182;-58
2022/02/09 10:37:05;;;;;;;;;;;17.00;99.90;;;;;;4997996;28;1019;-58
2022/02/09 10:40:00;;;;;;;;;;;17.10;99.90;;;;;;5000576;28;1050;-58
2022/02/09 10:42:45;;;;;;;;;;;17.10;99.90;;;;;;5034352;28;1042;-58
2022/02/09 10:45:34;;;;;;;;;;;17.10;99.90;;;;;;5047588;28;1002;-58
2022/02/09 10:48:01;;;;;;;;;;;17.10;99.90;;;;;;5030417;28;1910;-58
2022/02/09 10:50:31;;;;;;;;;;;17.20;99.90;;;;;;5035769;28;992;-58
2022/02/09 10:52:59;;;;;;;;;;;17.20;99.90;;;;;;5035803;28;1149;-58
2022/02/09 10:55:26;;;;;;;;;;;17.20;99.90;;;;;;5021303;28;1015;-58
2022/02/09 10:57:52;;;;;;;;;;;17.30;99.90;;;;;;5037584;28;1109;-59
2022/02/09 11:00:24;;;;;;;;;;;17.30;99.90;;;;;;5042428;28;990;-57
2022/02/09 11:02:53;;;;;;;;;;;17.30;99.90;;;;;;5013478;28;1516;-48
2022/02/09 11:05:24;;;;;;;;;;;17.30;99.90;;;;;;5013764;28;1172;-47
2022/02/09 11:07:52;;;;;;;;;;;17.40;99.90;;;;;;5016731;28;1046;-47
2022/02/09 11:10:18;;;;;;;;;;;17.50;99.90;;;;;;5002046;28;1975;-47
2022/02/09 11:12:45;;;;;;;;;;;17.50;99.90;;;;;;4974094;28;1871;-47
2022/02/09 11:15:19;;;;;;;;;;;17.50;99.90;;;;;;5013311;28;1061;-47
2022/02/09 11:17:47;;;;;;;;;;;17.50;99.90;;;;;;5015803;28;1092;-47
2022/02/09 11:20:19;;;;;;;;;;;17.40;99.90;;;;;;5022042;28;1057;-47
2022/02/09 11:22:54;;;;;;;;;;;17.40;99.90;;;;;;5017048;28;1046;-47
2022/02/09 11:25:32;;;;;;;;;;;17.40;99.90;;;;;;5002277;28;941;-47
2022/02/09 11:28:42;;;;;;;;;;;17.40;99.90;;;;;;5019370;28;1053;-47
2022/02/09 11:31:22;;;;;;;;;;;17.40;99.90;;;;;;5012097;28;1270;-47
2022/02/09 11:34:18;;;;;;;;;;;17.40;99.90;;;;;;5015780;28;1415;-47
2022/02/09 11:36:53;;;;;;;;;;;17.40;99.90;;;;;;5013457;28;1051;-47
2022/02/09 11:39:38;;;;;;;;;;;17.50;99.90;;;;;;4966503;28;1440;-47
2022/02/09 11:42:27;;;;;;;;;;;17.40;99.90;;;;;;5017507;28;987;-47
2022/02/09 11:45:18;;;;;;;;;;;17.50;99.90;;;;;;5015238;28;1274;-47
2022/02/09 11:59:48;;;;;;;;;;;17.30;99.90;;;;;;4956064;29;1147;-47
2022/02/09 12:01:52;;;;;;;;;;;17.00;99.90;;;;;;4943388;29;1381;-48
2022/02/09 12:10:16;;;;;;;;;;;16.50;99.90;;;;;;4956371;28;1906;-47
2022/02/09 12:12:45;;;;;;;;;;;16.60;99.90;;;;;;4966596;28;1303;-57
2022/02/09 12:18:36;;;;;;;;;;;16.70;99.90;;;;;;4935972;28;1285;-57
2022/02/09 12:21:15;;;;;;;;;;;16.80;99.90;;;;;;4939778;28;1369;-57
2022/02/09 12:23:47;;;;;;;;;;;16.80;99.90;;;;;;4948101;28;1460;-56
2022/02/09 12:26:13;;;;;;;;;;;16.90;99.90;;;;;;4963242;28;1422;-58
2022/02/09 12:28:41;;;;;;;;;;;16.90;99.90;;;;;;4932897;28;1981;-56
2022/02/09 12:31:27;;;;;;;;;;;16.90;99.90;;;;;;4986901;28;1296;-56
2022/02/09 12:33:58;;;;;;;;;;;16.90;99.90;;;;;;5013169;28;1355;-56
2022/02/09 12:36:33;;;;;;;;;;;16.90;99.90;;;;;;5038229;28;1404;-57
2022/02/09 12:39:01;;;;;;;;;;;16.90;99.90;;;;;;5047847;28;1081;-56
2022/02/09 12:41:28;;;;;;;;;;;17.00;99.90;;;;;;5030346;28;1045;-57
2022/02/09 12:44:13;;;;;;;;;;;17.00;99.90;;;;;;5041116;28;1037;-57
2022/02/09 12:46:43;;;;;;;;;;;17.10;99.90;;;;;;5052384;28;1622;-56
2022/02/09 12:49:12;;;;;;;;;;;17.10;99.90;;;;;;5034923;28;1977;-56
2022/02/09 12:51:40;;;;;;;;;;;17.10;99.90;;;;;;5048881;28;1053;-56
2022/02/09 12:54:09;;;;;;;;;;;17.10;99.90;;;;;;5012390;28;1302;-57
2022/02/09 12:56:37;;;;;;;;;;;17.10;99.90;;;;;;5052984;28;1107;-57
2022/02/09 12:59:22;;;;;;;;;;;17.20;99.90;;;;;;5053654;28;1196;-57
2022/02/09 13:01:54;;;;;;;;;;;17.20;99.90;;;;;;5065822;28;1487;-56
2022/02/09 13:04:34;;;;;;;;;;;17.20;99.90;;;;;;5019567;28;979;-57
2022/02/09 13:07:03;;;;;;;;;;;17.20;99.90;;;;;;5066643;28;1141;-56
2022/02/09 13:09:30;;;;;;;;;;;17.20;99.90;;;;;;5053376;28;1909;-56
2022/02/09 13:11:56;;;;;;;;;;;17.20;99.90;;;;;;5073111;28;997;-56
2022/02/09 13:14:46;;;;;;;;;;;17.30;99.90;;;;;;5028339;28;1143;-57
2022/02/09 13:17:29;;;;;;;;;;;17.30;99.90;;;;;;5053839;28;994;-56
2022/02/09 13:23:25;;;;;;;;;;;17.30;99.90;;;;;;5013693;28;1410;-57
2022/02/09 13:25:59;;;;;;;;;;;17.30;99.90;;;;;;5013705;28;1754;-56
2022/02/09 14:11:58;;;;;;;;;;;17.60;99.90;;;;;;5067119;28;1049;-47
2022/02/09 14:17:20;;;;;;;;;;;17.60;99.90;;;;;;5066415;28;1267;-56
2022/02/09 14:47:38;;;;;;;;;;;17.70;99.90;;;;;;5062693;28;1240;-47
2022/02/09 14:53:48;;;;;;;;;;;17.80;99.90;;;;;;5064225;28;1073;-47
2022/02/09 14:58:32;;;;;;;;;;;17.90;99.90;;;;;;5016657;28;1152;-47
2022/02/09 15:01:14;;;;;;;;;;;17.90;99.90;;;;;;5000312;28;1344;-47
2022/02/09 15:04:14;;;;;;;;;;;17.90;99.90;;;;;;5014377;28;1672;-47
2022/02/09 15:09:41;;;;;;;;;;;17.90;99.90;;;;;;5024422;28;1910;-47
2022/02/09 15:12:29;;;;;;;;;;;18.00;99.90;;;;;;5016360;28;1313;-46
2022/02/09 15:22:54;;;;;;;;;;;17.90;99.90;;;;;;4954946;28;1207;-47
2022/02/09 15:25:30;;;;;;;;;;;17.90;99.90;;;;;;4955965;28;1075;-46
2022/02/09 15:27:59;;;;;;;;;;;17.90;99.90;;;;;;4924713;28;1502;-46
2022/02/09 15:30:40;;;;;;;;;;;17.90;99.90;;;;;;4954210;28;1973;-46
2022/02/09 15:33:12;;;;;;;;;;;17.90;99.90;;;;;;4943084;28;929;-47
2022/02/09 15:35:41;;;;;;;;;;;17.90;99.90;;;;;;4972839;28;1736;-47
2022/02/09 15:38:17;;;;;;;;;;;17.90;99.90;;;;;;4952149;28;927;-46
2022/02/09 15:43:24;;;;;;;;;;;17.80;99.90;;;;;;4974611;28;910;-46
2022/02/09 16:05:40;;;;;;;;;;;17.60;99.90;;;;;;5072538;28;757;-46
2022/02/09 16:08:23;;;;;;;;;;;17.60;99.90;;;;;;5071881;28;1128;-46
2022/02/09 16:10:39;;;;;;;;;;;17.50;99.90;;;;;;5053411;28;1973;-46
2022/02/09 16:46:33;;;;;;;;;;;17.10;99.90;;;;;;4995675;28;774;-46
2022/02/09 16:49:13;;;;;;;;;;;17.10;99.90;;;;;;4995017;28;1968;-46
2022/02/09 16:51:55;;;;;;;;;;;17.10;99.90;;;;;;4981493;28;887;-46
2022/02/09 17:21:12;;;;;;;;;;;16.80;99.90;;;;;;5056606;28;809;-47
2022/02/09 17:23:40;;;;;;;;;;;16.80;99.90;;;;;;5060237;28;817;-47
2022/02/09 17:26:08;;;;;;;;;;;16.80;99.90;;;;;;5022776;28;967;-47
2022/02/09 17:28:34;;;;;;;;;;;16.80;99.90;;;;;;5058872;28;1052;-47
2022/02/09 17:36:21;;;;;;;;;;;16.80;99.90;;;;;;5065673;28;868;-47
2022/02/09 17:38:56;;;;;;;;;;;16.70;99.90;;;;;;5057395;28;823;-47
2022/02/09 17:58:08;;;;;;;;;;;16.60;99.90;;;;;;5022008;28;1461;-57
2022/02/09 18:00:35;;;;;;;;;;;16.60;99.90;;;;;;5019912;28;780;-57
2022/02/09 18:03:24;;;;;;;;;;;16.60;99.90;;;;;;5017758;28;741;-57
2022/02/09 18:05:56;;;;;;;;;;;16.60;99.90;;;;;;5014240;28;990;-57
2022/02/09 18:08:35;;;;;;;;;;;16.60;99.90;;;;;;5016842;28;1423;-57
2022/02/09 18:12:11;;;;;;;;;;;16.60;99.90;;;;;;4959313;28;1907;-57
2022/02/09 18:25:35;;;;;;;;;;;16.50;99.90;;;;;;5059030;28;754;-57
2022/02/09 18:58:17;;;;;;;;;;;16.30;99.90;;;;;;5058419;28;829;-57
2022/02/09 19:03:26;;;;;;;;;;;16.30;99.90;;;;;;5016667;28;1218;-57
2022/02/09 19:05:55;;;;;;;;;;;16.30;99.90;;;;;;5016585;28;919;-57
2022/02/09 19:08:59;;;;;;;;;;;16.30;99.90;;;;;;5003298;28;1100;-57
2022/02/09 19:16:59;;;;;;;;;;;16.20;99.90;;;;;;5022577;28;1268;-57
2022/02/09 19:49:38;;;;;;;;;;;16.10;99.90;;;;;;4996174;28;1560;-57
2022/02/09 19:56:58;;;;;;;;;;;16.10;99.90;;;;;;4996227;28;823;-57
2022/02/09 19:59:24;;;;;;;;;;;16.10;99.90;;;;;;4996203;28;875;-58
2022/02/09 20:01:54;;;;;;;;;;;16.00;99.90;;;;;;5028608;28;1540;-57
2022/02/09 20:04:21;;;;;;;;;;;16.00;99.90;;;;;;5055764;28;869;-57
2022/02/09 20:06:47;;;;;;;;;;;16.00;99.90;;;;;;5021830;28;1030;-57
2022/02/09 20:09:14;;;;;;;;;;;16.00;99.90;;;;;;5035179;28;1241;-57
2022/02/09 20:11:44;;;;;;;;;;;16.00;99.90;;;;;;5019153;28;1910;-57
2022/02/09 20:14:12;;;;;;;;;;;16.00;99.90;;;;;;5001928;28;940;-57
2022/02/09 20:16:40;;;;;;;;;;;16.00;99.90;;;;;;5017993;28;975;-57
2022/02/09 20:19:07;;;;;;;;;;;16.00;99.90;;;;;;5018572;28;811;-57
2022/02/09 20:21:35;;;;;;;;;;;15.90;99.90;;;;;;5018570;28;1212;-57
2022/02/09 20:24:02;;;;;;;;;;;15.90;99.90;;;;;;5018600;28;1041;-57
2022/02/09 20:26:29;;;;;;;;;;;15.90;99.90;;;;;;5018638;28;913;-57
2022/02/09 20:29:09;;;;;;;;;;;15.90;99.90;;;;;;5002354;28;1368;-57
2022/02/09 20:31:58;;;;;;;;;;;15.90;99.90;;;;;;5034744;28;1973;-56
2022/02/09 20:34:49;;;;;;;;;;;15.90;99.90;;;;;;5032565;28;1035;-57
2022/02/09 20:37:17;;;;;;;;;;;15.90;99.90;;;;;;5001194;28;1008;-57
2022/02/09 20:39:55;;;;;;;;;;;15.90;99.90;;;;;;5035178;28;834;-57
2022/02/09 20:42:24;;;;;;;;;;;15.80;99.90;;;;;;5018839;28;956;-57
2022/02/09 20:45:11;;;;;;;;;;;15.80;99.90;;;;;;5036799;28;771;-57
2022/02/09 20:47:38;;;;;;;;;;;15.80;99.90;;;;;;5036454;28;793;-57
2022/02/09 20:50:05;;;;;;;;;;;15.80;99.90;;;;;;5001068;28;1977;-57
2022/02/09 20:52:32;;;;;;;;;;;15.80;99.90;;;;;;5036480;28;755;-57
2022/02/09 20:55:00;;;;;;;;;;;15.80;99.90;;;;;;5036153;28;989;-57
2022/02/09 20:57:29;;;;;;;;;;;15.80;99.90;;;;;;5039405;28;794;-47
2022/02/09 21:00:04;;;;;;;;;;;15.80;99.90;;;;;;5040228;28;803;-47
2022/02/09 21:02:43;;;;;;;;;;;15.80;99.90;;;;;;5040509;28;758;-47
2022/02/09 21:06:05;;;;;;;;;;;15.80;99.90;;;;;;5040051;28;881;-47
2022/02/09 21:08:12;;;;;;;;;;;15.80;99.90;;;;;;5027742;28;1349;-47
2022/02/09 21:46:56;;;;;;;;;;;15.70;99.90;;;;;;4998627;28;882;-57
2022/02/09 22:55:31;;;;;;;;;;;15.30;99.90;;;;;;4963460;28;1075;-46
2022/02/09 22:58:02;;;;;;;;;;;15.30;99.90;;;;;;5016938;28;1113;-46
2022/02/09 23:03:18;;;;;;;;;;;15.30;99.90;;;;;;5016895;28;895;-46
2022/02/09 23:16:57;;;;;;;;;;;15.20;99.90;;;;;;5018482;28;924;-47
